Latest Weather Observations for Newman Airport

IDW60801

Issued at 8:35 am WST Saturday 1 November 2014 (issued every 30 minutes, with the page automatically refreshed every 10 minutes)

About weather observations | Map of weather stations | Latest weather observations for WA | Other Formats
Station Details ID: 007176 Name: NEWMAN AERO Lat: -23.42 Lon: 119.80 Height: 524.0 m
Data from the previous 72 hours. | See also: Recent months at Newman Airport
Date/Time
WST
Temp
°C
App
Temp
°C
Dew
Point
Rel
Hum
%
Delta-T
°C
Wind Press
QNH
hPa
Press
MSL
hPa
Rain
since 9 am
mm
Dir
 
Spd
km/h
Gust
km/h
Spd
kts
Gust
kts
01/08:30am 27.8 21.9 6.0 25 11.7 E 26 39 14 21 1015.2 1011.4 0.0
01/08:00am 26.9 21.3 5.2 25 11.4 ESE 24 35 13 19 1015.1 1011.3 0.0
01/07:30am 26.7 20.9 4.5 24 11.5 SE 24 30 13 16 1015.0 1011.7 0.0
01/07:00am 25.3 19.1 2.1 22 11.4 SE 24 28 13 15 1014.8 1011.5 0.0
01/06:30am 23.7 20.2 1.4 23 10.7 SSE 9 17 5 9 1014.5 1011.2 0.0
01/06:00am 21.4 18.0 1.6 27 9.4 SSW 9 13 5 7 1014.4 1011.1 0.0
01/05:30am 19.5 16.0 1.5 30 8.4 SW 9 9 5 5 1013.9 1010.6 0.0
01/05:00am 20.1 16.6 1.5 29 8.7 SW 9 11 5 6 1013.7 1010.4 0.0
01/04:30am 19.9 16.8 1.4 29 8.6 SSW 7 9 4 5 1013.1 1009.8 0.0
01/04:00am 20.6 17.1 1.5 28 9.0 SW 9 9 5 5 1012.8 1009.5 0.0
01/03:30am 22.2 19.4 1.8 26 9.8 S 6 7 3 4 1012.5 1009.2 0.0
01/03:00am 23.1 20.3 2.0 25 10.2 S 6 7 3 4 1012.3 1009.0 0.0
01/02:30am 24.5 21.2 2.6 24 10.8 SSE 9 13 5 7 1012.3 1009.0 0.0
01/02:00am 25.0 21.3 2.4 23 11.2 S 11 15 6 8 1012.2 1008.9 0.0
01/01:30am 25.5 22.2 2.2 22 11.5 S 9 15 5 8 1012.2 1008.9 0.0
01/01:00am 26.5 22.7 1.7 20 12.2 SSE 11 17 6 9 1012.1 1008.8 0.0
01/12:30am 26.8 22.5 1.3 19 12.5 S 13 17 7 9 1012.2 1008.9 0.0
01/12:00am 26.2 22.4 -0.8 17 12.7 SSW 9 13 5 7 1012.3 1009.0 0.0
 
Date/Time
WST
Temp
°C
App
Temp
°C
Dew
Point
Rel
Hum
%
Delta-T
°C
Wind Press
QNH
hPa
Press
MSL
hPa
Rain
since 9 am
mm
Dir
 
Spd
km/h
Gust
km/h
Spd
kts
Gust
kts
31/11:30pm 26.7 22.3 -2.1 15 13.3 SW 11 13 6 7 1012.4 1009.1 0.0
31/11:00pm 27.3 23.1 -3.5 13 13.9 SW 9 11 5 6 1012.4 1009.1 0.0
31/10:30pm 27.5 23.4 -3.3 13 14.0 SSW 9 11 5 6 1012.6 1009.3 0.0
31/10:00pm 27.4 23.1 -4.5 12 14.2 SW 9 11 5 6 1012.6 1009.3 0.0
31/09:30pm 27.9 23.3 -4.1 12 14.4 SW 11 15 6 8 1012.4 1009.1 0.0
31/09:00pm 27.8 23.6 -4.2 12 14.3 SW 9 11 5 6 1012.3 1009.0 0.0
31/08:30pm 29.3 24.9 -5.4 10 15.4 WSW 9 11 5 6 1012.0 1008.7 0.0
31/08:00pm 31.0 26.1 -7.1 8 16.7 WSW 11 13 6 7 1011.9 1008.6 0.0
31/07:30pm 31.9 26.7 -6.4 8 17.1 WSW 13 15 7 8 1011.7 1008.3 0.0
31/07:00pm 33.1 27.8 -7.3 7 17.9 WSW 13 19 7 10 1011.1 1007.8 0.0
31/06:30pm 34.0 27.6 -6.6 7 18.3 WSW 19 26 10 14 1010.6 1007.3 0.0
31/06:00pm 34.9 28.2 -8.0 6 19.1 WSW 20 32 11 17 1010.2 1006.9 0.0
31/05:30pm 35.8 28.4 -7.3 6 19.5 SW 24 35 13 19 1009.9 1006.5 0.0
31/05:00pm 36.4 28.8 -9.2 5 20.1 WNW 24 30 13 16 1009.6 1006.2 0.0
31/04:30pm 36.6 27.9 -9.1 5 20.2 W 30 44 16 24 1009.5 1006.1 0.0
31/04:00pm 37.3 28.7 -8.6 5 20.6 W 30 39 16 21 1009.4 1006.0 0.0
31/03:43pm 37.4 27.8 -8.5 5 20.6 W 35 44 19 24 1009.1 1005.8 0.0
31/03:30pm 37.8 31.3 -8.3 5 20.8 W 19 26 10 14 1009.3 1005.9 0.0
31/03:17pm 37.4 29.1 -8.5 5 20.6 WSW 28 50 15 27 1009.3 1005.9 0.0
31/03:00pm 38.1 30.0 -10.9 4 21.4 W 26 44 14 24 1009.3 1005.9 0.0
31/02:43pm 37.9 29.7 -8.2 5 20.9 W 28 50 15 27 1009.3 1005.9 0.0
31/02:30pm 37.8 30.3 -8.3 5 20.8 W 24 35 13 19 1009.5 1006.1 0.0
31/02:07pm 37.3 29.0 -8.6 5 20.6 W 28 46 15 25 1009.7 1006.3 0.0
31/02:00pm 37.4 28.8 -8.5 5 20.7 W 30 41 16 22 1009.8 1006.4 0.0
31/01:30pm 37.6 29.6 -6.0 6 20.4 WSW 28 56 15 30 1010.1 1006.7 0.0
31/01:00pm 37.4 29.0 -6.2 6 20.3 W 30 50 16 27 1010.4 1007.1 0.0
31/12:53pm 37.3 28.5 -6.3 6 20.3 W 32 50 17 27 1010.4 1007.1 0.0
31/12:30pm 36.6 28.5 -6.8 6 19.9 WSW 28 44 15 24 1010.7 1007.4 0.0
31/12:00pm 36.4 30.0 -4.9 7 19.5 WSW 20 33 11 18 1011.1 1007.8 0.0
31/11:30am 35.8 29.6 -5.3 7 19.2 WSW 19 32 10 17 1011.8 1008.4 0.0
31/11:00am 34.4 27.8 -3.0 9 18.0 WSW 22 37 12 20 1012.1 1008.8 0.0
31/10:30am 34.1 27.1 -3.2 9 17.8 WSW 24 35 13 19 1012.3 1009.0 0.0
31/10:00am 33.2 27.4 0.0 12 16.6 SSW 20 32 11 17 1012.7 1009.4 0.0
31/09:30am 31.8 26.7 1.0 14 15.5 SSW 17 28 9 15 1013.0 1009.7 0.0
31/09:00am 31.5 27.5 2.7 16 14.9 S 13 24 7 13 1013.4 1010.0 0.0
31/08:30am 30.6 26.2 2.8 17 14.3 S 15 24 8 13 1013.7 1010.4 0.0
31/08:00am 29.4 24.2 2.6 18 13.7 SSW 19 26 10 14 1013.5 1010.1 0.0
31/07:30am 28.0 22.4 3.7 21 12.5 SSW 22 32 12 17 1013.4 1010.0 0.0
31/07:00am 27.2 22.2 3.7 22 12.1 SW 19 24 10 13 1013.2 1009.9 0.0
31/06:30am 24.6 22.0 4.4 27 10.3 SW 7 9 4 5 1013.2 1009.9 0.0
31/06:00am 24.4 21.8 4.2 27 10.3 WSW 7 9 4 5 1012.8 1009.5 0.0
31/05:30am 23.6 20.2 4.0 28 9.9 WSW 11 13 6 7 1012.5 1009.2 0.0
31/05:00am 24.4 21.0 4.2 27 10.3 WSW 11 13 6 7 1012.1 1008.8 0.0
31/04:30am 24.6 21.2 3.8 26 10.5 SW 11 13 6 7 1011.9 1008.6 0.0
31/04:00am 24.5 21.4 3.8 26 10.5 WSW 9 11 5 6 1011.5 1008.1 0.0
31/03:30am 24.8 22.1 3.5 25 10.7 SW 7 11 4 6 1011.2 1007.9 0.0
31/03:00am 25.0 21.8 3.0 24 11.0 WSW 9 11 5 6 1011.1 1007.8 0.0
31/02:30am 24.5 21.7 3.2 25 10.6 WSW 7 9 4 5 1011.1 1007.8 0.0
31/02:00am 24.7 21.5 2.8 24 10.9 WSW 9 9 5 5 1011.2 1007.9 0.0
31/01:30am 25.0 22.1 2.4 23 11.2 WSW 7 9 4 5 1011.4 1008.0 0.0
31/01:00am 26.1 22.8 2.7 22 11.7 WSW 9 11 5 6 1011.6 1008.2 0.0
31/12:30am 27.2 23.1 2.3 20 12.5 WSW 13 15 7 8 1011.6 1008.2 0.0
31/12:00am 27.9 23.8 2.2 19 12.9 WSW 13 17 7 9 1011.7 1008.3 0.0
 
Date/Time
WST
Temp
°C
App
Temp
°C
Dew
Point
Rel
Hum
%
Delta-T
°C
Wind Press
QNH
hPa
Press
MSL
hPa
Rain
since 9 am
mm
Dir
 
Spd
km/h
Gust
km/h
Spd
kts
Gust
kts
30/11:30pm 27.9 23.8 2.2 19 12.9 WSW 13 19 7 10 1012.0 1008.7 0.0
30/11:00pm 28.0 24.2 1.5 18 13.2 SW 11 17 6 9 1012.0 1008.7 0.0
30/10:30pm 28.9 24.7 1.4 17 13.7 WSW 13 17 7 9 1012.0 1008.7 0.0
30/10:00pm 29.8 25.5 1.3 16 14.3 WSW 13 19 7 10 1011.8 1008.4 0.0
30/09:30pm 30.7 26.4 1.1 15 14.8 WSW 13 17 7 9 1011.7 1008.3 0.0
30/09:00pm 31.1 27.6 1.4 15 15.0 WSW 9 9 5 5 1011.6 1008.2 0.0
30/08:30pm 32.4 28.4 0.5 13 16.0 WSW 11 15 6 8 1011.6 1008.2 0.0
30/08:00pm 32.8 28.8 0.8 13 16.2 WSW 11 15 6 8 1011.5 1008.1 0.0
30/07:30pm 33.7 29.5 1.5 13 16.5 SW 13 17 7 9 1011.4 1008.0 0.0
30/07:00pm 34.2 30.0 1.9 13 16.8 SW 13 15 7 8 1011.0 1007.7 0.0
30/06:30pm 34.9 30.6 1.3 12 17.3 WSW 13 19 7 10 1010.6 1007.3 0.0
30/06:00pm 35.8 30.1 0.8 11 18.0 WSW 20 30 11 16 1010.3 1007.0 0.0
30/05:30pm 36.6 30.8 0.1 10 18.7 WSW 20 35 11 19 1010.1 1006.7 0.0
30/05:00pm 37.8 31.9 -0.5 9 19.6 WSW 20 30 11 16 1009.9 1006.5 0.0
30/04:30pm 38.0 31.8 -0.3 9 19.6 W 22 33 12 18 1009.8 1006.4 0.0
30/04:00pm 38.1 30.8 -0.3 9 19.7 W 28 39 15 21 1009.9 1006.5 0.0
30/03:30pm 38.3 32.1 -0.1 9 19.8 W 22 46 12 25 1010.1 1006.7 0.0
30/03:00pm 38.5 32.0 0.0 9 19.9 W 24 33 13 18 1010.2 1006.9 0.0
30/02:30pm 38.2 32.4 -0.2 9 19.7 WSW 20 28 11 15 1010.4 1007.1 0.0
30/02:00pm 38.2 31.6 -0.2 9 19.8 SSW 24 41 13 22 1010.8 1007.5 0.0
30/01:30pm 38.1 30.8 -0.3 9 19.7 W 28 43 15 23 1011.1 1007.8 0.0
30/01:00pm 37.6 31.9 0.8 10 19.2 SW 20 32 11 17 1011.6 1008.2 0.0
30/12:30pm 37.6 32.9 0.8 10 19.1 WNW 15 33 8 18 1011.8 1008.4 0.0
30/12:00pm 36.5 31.5 3.7 13 17.7 SW 19 26 10 14 1012.5 1009.2 0.0
30/11:30am 36.4 30.6 4.6 14 17.4 W 24 35 13 19 1012.7 1009.4 0.0
30/11:00am 35.8 32.2 5.1 15 16.9 S 13 20 7 11 1012.9 1009.6 0.0
30/10:30am 35.7 31.0 6.0 16 16.6 SW 20 28 11 15 1013.5 1010.1 0.0
30/10:00am 34.4 32.1 7.5 19 15.3 S 9 15 5 8 1014.0 1010.7 0.0
30/09:30am 33.3 32.2 10.0 24 13.7 ENE 6 11 3 6 1014.3 1011.0 0.0
30/09:00am 31.2 30.8 12.5 31 11.3 N 6 11 3 6 1014.4 1011.1 0.0
30/08:30am 30.4 30.6 13.2 35 10.5 SSE 4 7 2 4 1014.5 1011.2 0.0
30/08:00am 28.8 28.9 13.9 40 9.1 SSW 6 9 3 5 1014.6 1011.3 0.0
30/07:30am 27.5 27.4 13.4 41 8.5 SSE 6 9 3 5 1014.6 1011.3 0.0
30/07:00am 26.6 25.8 13.0 43 8.1 S 9 15 5 8 1014.5 1011.2 0.0
30/06:30am 24.9 22.8 6.6 31 9.7 SW 7 11 4 6 1014.3 1011.0 0.0
30/06:00am 23.6 21.1 4.5 29 9.7 SW 7 11 4 6 1014.4 1011.1 0.0
30/05:30am 22.9 20.2 3.9 29 9.5 SW 7 11 4 6 1014.0 1010.7 0.0
30/05:00am 23.3 20.2 3.8 28 9.8 WSW 9 9 5 5 1013.5 1010.1 0.0
30/04:30am 24.0 20.6 3.9 27 10.1 WSW 11 13 6 7 1013.2 1009.9 0.0
30/04:00am 24.2 21.6 4.0 27 10.2 SW 7 9 4 5 1012.9 1009.6 0.0
30/03:30am 25.2 22.4 3.2 24 11.0 SW 7 11 4 6 1012.9 1009.6 0.0
30/03:00am 26.3 22.8 3.5 23 11.6 SW 11 15 6 8 1012.7 1009.4 0.0
30/02:30am 26.5 23.3 3.1 22 11.8 SSW 9 15 5 8 1012.6 1009.3 0.0
30/02:00am 27.3 23.7 3.1 21 12.3 WSW 11 15 6 8 1012.6 1009.3 0.0
30/01:30am 28.4 24.5 3.3 20 12.9 WSW 13 17 7 9 1012.6 1009.3 0.0
30/01:00am 29.1 24.6 2.4 18 13.6 SW 15 19 8 10 1012.6 1009.3 0.0
30/12:30am 30.0 25.1 2.3 17 14.1 SW 17 20 9 11 1012.8 1009.5 0.0
30/12:00am 31.0 25.8 2.3 16 14.7 SW 19 24 10 13 1012.7 1009.4 0.0
 
Date/Time
WST
Temp
°C
App
Temp
°C
Dew
Point
Rel
Hum
%
Delta-T
°C
Wind Press
QNH
hPa
Press
MSL
hPa
Rain
since 9 am
mm
Dir
 
Spd
km/h
Gust
km/h
Spd
kts
Gust
kts
29/11:30pm 32.1 26.9 2.2 15 15.4 SW 19 24 10 13 1012.6 1009.3 0.0
29/11:00pm 33.1 28.0 1.0 13 16.3 W 17 30 9 16 1012.7 1009.4 0.0
29/10:30pm 32.9 29.5 1.9 14 16.0 NW 9 13 5 7 1012.5 1009.2 0.0
29/10:00pm 33.6 29.7 1.4 13 16.5 NNW 11 13 6 7 1012.6 1009.3 0.0
29/09:30pm 33.9 30.3 0.5 12 16.9 NNW 9 13 5 7 1012.5 1009.2 0.0
29/09:00pm 33.1 29.7 2.0 14 16.1 NW 9 11 5 6 1012.6 1009.3 0.0
29/08:30pm 33.7 30.4 0.4 12 16.8 W 7 11 4 6 1012.2 1008.9 0.0
29/08:00pm 34.7 32.5 1.1 12 17.3 NNW 2 7 1 4 1012.1 1008.8 0.0
29/07:30pm 35.3 31.7 0.4 11 17.8 NW 9 13 5 7 1012.0 1008.7 0.0
29/07:00pm 36.0 32.2 -0.4 10 18.4 WNW 9 15 5 8 1011.6 1008.2 0.0
29/06:30pm 36.8 31.8 -1.2 9 19.1 W 15 20 8 11 1011.0 1007.7 0.0
29/06:00pm 37.2 31.9 -0.9 9 19.3 WSW 17 22 9 12 1010.6 1007.3 0.0
29/05:30pm 37.8 32.5 -0.5 9 19.5 W 17 24 9 13 1010.4 1007.1 0.0
29/05:00pm 37.8 33.3 -0.5 9 19.6 W 13 17 7 9 1010.3 1007.0 0.0
29/04:30pm 38.2 33.7 -0.2 9 19.7 W 13 19 7 10 1010.2 1006.9 0.0
29/04:00pm 38.7 34.3 0.2 9 20.0 W 13 20 7 11 1010.1 1006.7 0.0
29/03:30pm 39.1 34.1 -1.1 8 20.5 W 15 28 8 15 1010.0 1006.6 0.0
29/03:00pm 39.6 35.0 -0.8 8 20.8 NW 13 22 7 12 1010.0 1006.6 0.0
29/02:30pm 39.1 33.4 0.5 9 20.1 W 20 30 11 16 1010.2 1006.9 0.0
29/02:00pm 39.5 35.7 -0.8 8 20.7 SW 9 24 5 13 1010.5 1007.2 0.0
29/01:30pm 39.5 33.8 0.8 9 20.3 NW 20 28 11 15 1010.9 1007.6 0.0
29/01:00pm 39.9 33.9 1.1 9 20.5 WNW 22 32 12 17 1011.4 1008.0 0.0
29/12:30pm 39.0 34.8 1.9 10 19.8 SSW 13 20 7 11 1011.8 1008.4 0.0
29/12:00pm 38.6 34.7 5.3 13 18.6 WSW 15 28 8 15 1012.1 1008.8 0.0
29/11:30am 37.9 34.3 6.8 15 17.7 NW 15 22 8 12 1012.6 1009.3 0.0
29/11:00am 36.9 33.2 7.8 17 16.8 WNW 17 28 9 15 1013.0 1009.7 0.0
29/10:30am 35.3 32.6 8.9 20 15.4 WNW 13 20 7 11 1013.6 1010.2 0.0
29/10:00am 34.0 30.3 9.3 22 14.4 NW 19 24 10 13 1013.8 1010.5 0.0
29/09:30am 33.1 29.8 11.6 27 12.9 N 20 30 11 16 1014.1 1010.8 0.0
29/09:00am 31.5 27.4 10.2 27 12.4 NNW 22 32 12 17 1014.2 1010.9 0.0

Other Formats:

Comma delimited format used in spreadsheet applications
http://www.bom.gov.au/fwo/IDW60801/IDW60801.94317.axf

JavaScript Object Notation format (JSON) in row-major order
http://www.bom.gov.au/fwo/IDW60801/IDW60801.94317.json